sensor_id;sensor_type;location;lat;lon;timestamp;pressure;altitude;pressure_sealevel;temperature;humidity
72892;BME280;61032;50.782;6.818;2023-07-13T00:00:28;100474.94;;;19.17;47.32
72892;BME280;61032;50.782;6.818;2023-07-13T00:01:29;100466.16;;;19.15;47.19
72892;BME280;61032;50.782;6.818;2023-07-13T00:02:30;100468.53;;;19.13;47.34
72892;BME280;61032;50.782;6.818;2023-07-13T00:03:30;100473.31;;;19.09;47.59
72892;BME280;61032;50.782;6.818;2023-07-13T00:04:35;100473.66;;;19.04;47.53
72892;BME280;61032;50.782;6.818;2023-07-13T00:05:36;100468.44;;;18.99;47.63
72892;BME280;61032;50.782;6.818;2023-07-13T00:06:36;100469.28;;;19.03;47.75
72892;BME280;61032;50.782;6.818;2023-07-13T00:07:36;100465.66;;;18.99;47.79
72892;BME280;61032;50.782;6.818;2023-07-13T00:08:38;100466.13;;;19.08;47.99
72892;BME280;61032;50.782;6.818;2023-07-13T00:09:38;100470.94;;;19.11;47.64
72892;BME280;61032;50.782;6.818;2023-07-13T00:10:40;100476.50;;;19.08;47.69
72892;BME280;61032;50.782;6.818;2023-07-13T00:11:41;100478.81;;;18.99;47.83
72892;BME280;61032;50.782;6.818;2023-07-13T00:12:41;100467.25;;;18.97;47.88
72892;BME280;61032;50.782;6.818;2023-07-13T00:13:42;100473.97;;;18.92;48.18
72892;BME280;61032;50.782;6.818;2023-07-13T00:14:43;100472.38;;;18.87;48.07
72892;BME280;61032;50.782;6.818;2023-07-13T00:15:43;100473.84;;;18.74;48.59
72892;BME280;61032;50.782;6.818;2023-07-13T00:16:44;100465.84;;;18.66;49.02
72892;BME280;61032;50.782;6.818;2023-07-13T00:17:44;100470.63;;;18.69;48.85
72892;BME280;61032;50.782;6.818;2023-07-13T00:18:45;100470.63;;;18.69;48.82
72892;BME280;61032;50.782;6.818;2023-07-13T00:19:46;100472.94;;;18.60;49.17
72892;BME280;61032;50.782;6.818;2023-07-13T00:20:46;100471.00;;;18.64;49.06
72892;BME280;61032;50.782;6.818;2023-07-13T00:21:47;100478.50;;;18.60;48.92
72892;BME280;61032;50.782;6.818;2023-07-13T00:22:48;100475.19;;;18.50;49.26
72892;BME280;61032;50.782;6.818;2023-07-13T00:23:49;100479.59;;;18.51;49.34
72892;BME280;61032;50.782;6.818;2023-07-13T00:24:49;100471.28;;;18.55;49.20
72892;BME280;61032;50.782;6.818;2023-07-13T00:25:51;100472.88;;;18.56;49.16
72892;BME280;61032;50.782;6.818;2023-07-13T00:26:52;100477.59;;;18.48;49.42
72892;BME280;61032;50.782;6.818;2023-07-13T00:27:52;100476.78;;;18.48;49.62
72892;BME280;61032;50.782;6.818;2023-07-13T00:28:52;100477.59;;;18.48;49.45
72892;BME280;61032;50.782;6.818;2023-07-13T00:29:53;100480.28;;;18.38;49.59
72892;BME280;61032;50.782;6.818;2023-07-13T00:30:53;100476.22;;;18.32;50.06
72892;BME280;61032;50.782;6.818;2023-07-13T00:31:54;100470.28;;;18.33;50.21
72892;BME280;61032;50.782;6.818;2023-07-13T00:32:54;100472.31;;;18.36;50.28
72892;BME280;61032;50.782;6.818;2023-07-13T00:33:55;100477.44;;;18.34;50.15
72892;BME280;61032;50.782;6.818;2023-07-13T00:34:56;100469.50;;;18.36;50.18
72892;BME280;61032;50.782;6.818;2023-07-13T00:35:57;100471.53;;;18.39;49.89
72892;BME280;61032;50.782;6.818;2023-07-13T00:36:58;100467.56;;;18.40;50.02
72892;BME280;61032;50.782;6.818;2023-07-13T00:37:59;100470.38;;;18.44;49.92
72892;BME280;61032;50.782;6.818;2023-07-13T00:38:59;100462.75;;;18.37;50.14
72892;BME280;61032;50.782;6.818;2023-07-13T00:39:59;100471.53;;;18.39;50.28
72892;BME280;61032;50.782;6.818;2023-07-13T00:41:00;100462.41;;;18.42;49.62
72892;BME280;61032;50.782;6.818;2023-07-13T00:42:01;100465.97;;;18.39;49.89
72892;BME280;61032;50.782;6.818;2023-07-13T00:43:02;100470.28;;;18.33;50.02
72892;BME280;61032;50.782;6.818;2023-07-13T00:44:05;100467.56;;;18.40;50.11
72892;BME280;61032;50.782;6.818;2023-07-13T00:46:18;100466.03;;;18.50;49.94
72892;BME280;61032;50.782;6.818;2023-07-13T00:47:25;100471.50;;;17.95;50.84
72892;BME280;61032;50.782;6.818;2023-07-13T00:49:02;100458.88;;;18.05;51.01
72892;BME280;61032;50.782;6.818;2023-07-13T00:50:27;100459.03;;;18.19;50.80
72892;BME280;61032;50.782;6.818;2023-07-13T00:51:43;100459.09;;;18.30;50.78
72892;BME280;61032;50.782;6.818;2023-07-13T00:52:51;100460.28;;;18.25;50.44
72892;BME280;61032;50.782;6.818;2023-07-13T00:53:56;100453.31;;;18.05;50.51
72892;BME280;61032;50.782;6.818;2023-07-13T00:54:59;100461.66;;;18.05;50.85
72892;BME280;61032;50.782;6.818;2023-07-13T00:56:00;100453.63;;;17.96;50.94
72892;BME280;61032;50.782;6.818;2023-07-13T00:57:04;100456.34;;;17.93;51.07
72892;BME280;61032;50.782;6.818;2023-07-13T00:58:05;100454.28;;;17.82;51.43
72892;BME280;61032;50.782;6.818;2023-07-13T00:59:08;100460.28;;;17.88;51.47
72892;BME280;61032;50.782;6.818;2023-07-13T01:00:12;100454.75;;;17.92;51.31
72892;BME280;61032;50.782;6.818;2023-07-13T01:01:12;100456.06;;;18.01;51.11
72892;BME280;61032;50.782;6.818;2023-07-13T01:02:13;100455.69;;;18.03;50.82
72892;BME280;61032;50.782;6.818;2023-07-13T01:03:14;100454.41;;;17.97;51.33
72892;BME280;61032;50.782;6.818;2023-07-13T01:04:14;100454.13;;;18.05;51.16
72892;BME280;61032;50.782;6.818;2023-07-13T01:05:19;100455.34;;;18.08;51.33
72892;BME280;61032;50.782;6.818;2023-07-13T01:06:20;100457.00;;;18.16;50.75
72892;BME280;61032;50.782;6.818;2023-07-13T01:07:20;100460.56;;;18.16;50.58
72892;BME280;61032;50.782;6.818;2023-07-13T01:08:21;100462.94;;;18.14;50.99
72892;BME280;61032;50.782;6.818;2023-07-13T01:09:22;100463.75;;;18.15;50.60
72892;BME280;61032;50.782;6.818;2023-07-13T01:10:23;100462.72;;;17.93;51.08
72892;BME280;61032;50.782;6.818;2023-07-13T01:11:23;100461.88;;;17.89;51.13
72892;BME280;61032;50.782;6.818;2023-07-13T01:12:24;100465.53;;;17.97;51.39
72892;BME280;61032;50.782;6.818;2023-07-13T01:13:25;100461.19;;;17.99;51.10
72892;BME280;61032;50.782;6.818;2023-07-13T01:14:25;100458.50;;;18.10;51.28
72892;BME280;61032;50.782;6.818;2023-07-13T01:15:40;100456.53;;;18.10;51.01
72892;BME280;61032;50.782;6.818;2023-07-13T01:16:42;100459.31;;;18.07;50.78
72892;BME280;61032;50.782;6.818;2023-07-13T01:17:43;100457.31;;;18.07;50.65
72892;BME280;61032;50.782;6.818;2023-07-13T01:18:43;100459.78;;;18.16;50.57
72892;BME280;61032;50.782;6.818;2023-07-13T01:19:45;100460.63;;;18.20;50.64
72892;BME280;61032;50.782;6.818;2023-07-13T01:20:50;100457.69;;;18.06;51.22
72892;BME280;61032;50.782;6.818;2023-07-13T01:21:52;100463.06;;;17.88;51.56
72892;BME280;61032;50.782;6.818;2023-07-13T01:22:53;100458.81;;;17.98;51.27
72892;BME280;61032;50.782;6.818;2023-07-13T01:23:53;100465.63;;;18.04;51.11
72892;BME280;61032;50.782;6.818;2023-07-13T01:24:54;100465.25;;;18.05;51.05
72892;BME280;61032;50.782;6.818;2023-07-13T01:25:55;100463.69;;;18.08;51.14
72892;BME280;61032;50.782;6.818;2023-07-13T01:26:55;100466.09;;;18.13;50.85
72892;BME280;61032;50.782;6.818;2023-07-13T01:27:56;100462.09;;;18.10;50.90
72892;BME280;61032;50.782;6.818;2023-07-13T01:28:56;100464.44;;;18.05;51.03
72892;BME280;61032;50.782;6.818;2023-07-13T01:29:56;100467.59;;;18.03;50.77
72892;BME280;61032;50.782;6.818;2023-07-13T01:31:03;100471.53;;;17.99;51.07
72892;BME280;61032;50.782;6.818;2023-07-13T01:32:04;100467.59;;;18.03;51.06
72892;BME280;61032;50.782;6.818;2023-07-13T01:33:08;100466.47;;;18.08;51.05
72892;BME280;61032;50.782;6.818;2023-07-13T01:34:10;100465.59;;;18.00;51.21
72892;BME280;61032;50.782;6.818;2023-07-13T01:35:10;100474.31;;;17.99;51.21
72892;BME280;61032;50.782;6.818;2023-07-13T01:36:12;100473.44;;;17.91;51.53
72892;BME280;61032;50.782;6.818;2023-07-13T01:37:13;100469.84;;;17.91;51.64
72892;BME280;61032;50.782;6.818;2023-07-13T01:38:15;100469.41;;;17.85;51.73
72892;BME280;61032;50.782;6.818;2023-07-13T01:39:16;100471.75;;;17.83;51.88
72892;BME280;61032;50.782;6.818;2023-07-13T01:40:17;100472.13;;;17.81;51.96
72892;BME280;61032;50.782;6.818;2023-07-13T01:41:17;100468.09;;;17.75;52.07
72892;BME280;61032;50.782;6.818;2023-07-13T01:42:18;100465.22;;;17.68;52.28
72892;BME280;61032;50.782;6.818;2023-07-13T01:43:19;100467.63;;;17.70;52.29
72892;BME280;61032;50.782;6.818;2023-07-13T01:44:20;100473.59;;;17.72;52.26
72892;BME280;61032;50.782;6.818;2023-07-13T01:45:20;100464.81;;;17.66;52.30
72892;BME280;61032;50.782;6.818;2023-07-13T01:46:21;100463.13;;;17.62;52.47
72892;BME280;61032;50.782;6.818;2023-07-13T01:47:22;100464.41;;;17.68;52.49
72892;BME280;61032;50.782;6.818;2023-07-13T01:48:23;100467.59;;;17.66;52.46
72892;BME280;61032;50.782;6.818;2023-07-13T01:49:24;100458.03;;;17.67;52.50
72892;BME280;61032;50.782;6.818;2023-07-13T01:50:25;100461.69;;;17.71;52.56
72892;BME280;61032;50.782;6.818;2023-07-13T01:51:26;100462.84;;;17.70;52.33
72892;BME280;61032;50.782;6.818;2023-07-13T01:52:26;100462.06;;;17.70;52.67
72892;BME280;61032;50.782;6.818;2023-07-13T01:53:26;100460.03;;;17.67;52.54
72892;BME280;61032;50.782;6.818;2023-07-13T01:54:26;100460.81;;;17.67;52.46
72892;BME280;61032;50.782;6.818;2023-07-13T01:55:27;100458.81;;;17.64;52.56
72892;BME280;61032;50.782;6.818;2023-07-13T01:56:28;100464.25;;;17.57;52.60
72892;BME280;61032;50.782;6.818;2023-07-13T01:57:28;100467.75;;;17.50;52.94
72892;BME280;61032;50.782;6.818;2023-07-13T01:58:28;100470.19;;;17.56;52.92
72892;BME280;61032;50.782;6.818;2023-07-13T01:59:29;100471.09;;;17.63;52.61
72892;BME280;61032;50.782;6.818;2023-07-13T02:00:30;100466.72;;;17.62;52.74
72892;BME280;61032;50.782;6.818;2023-07-13T02:01:31;100463.84;;;17.55;52.65
72892;BME280;61032;50.782;6.818;2023-07-13T02:02:31;100473.69;;;17.49;52.81
72892;BME280;61032;50.782;6.818;2023-07-13T02:03:31;100471.66;;;17.46;53.13
72892;BME280;61032;50.782;6.818;2023-07-13T02:04:31;100462.91;;;17.44;53.00
72892;BME280;61032;50.782;6.818;2023-07-13T02:05:32;100466.44;;;17.41;53.14
72892;BME280;61032;50.782;6.818;2023-07-13T02:06:32;100473.97;;;17.40;53.16
72892;BME280;61032;50.782;6.818;2023-07-13T02:07:33;100471.63;;;17.42;53.04
72892;BME280;61032;50.782;6.818;2023-07-13T02:08:33;100465.31;;;17.45;52.95
72892;BME280;61032;50.782;6.818;2023-07-13T02:09:34;100471.44;;;17.58;52.85
72892;BME280;61032;50.782;6.818;2023-07-13T02:10:34;100471.75;;;17.53;53.02
72892;BME280;61032;50.782;6.818;2023-07-13T02:11:34;100469.03;;;17.57;52.63
72892;BME280;61032;50.782;6.818;2023-07-13T02:12:35;100474.84;;;17.48;52.90
72892;BME280;61032;50.782;6.818;2023-07-13T02:13:36;100472.50;;;17.50;52.95
72892;BME280;61032;50.782;6.818;2023-07-13T02:14:36;100480.16;;;17.57;52.77
72892;BME280;61032;50.782;6.818;2023-07-13T02:15:39;100480.19;;;17.60;52.57
72892;BME280;61032;50.782;6.818;2023-07-13T02:16:41;100473.78;;;17.56;52.68
72892;BME280;61032;50.782;6.818;2023-07-13T02:17:41;100476.38;;;17.42;52.92
72892;BME280;61032;50.782;6.818;2023-07-13T02:18:42;100470.84;;;17.42;53.10
72892;BME280;61032;50.782;6.818;2023-07-13T02:19:42;100486.66;;;17.38;53.23
72892;BME280;61032;50.782;6.818;2023-07-13T02:20:43;100472.50;;;17.50;53.15
72892;BME280;61032;50.782;6.818;2023-07-13T02:21:44;100474.47;;;17.49;52.85
72892;BME280;61032;50.782;6.818;2023-07-13T02:22:44;100476.13;;;17.54;52.88
72892;BME280;61032;50.782;6.818;2023-07-13T02:23:44;100469.66;;;17.43;52.72
72892;BME280;61032;50.782;6.818;2023-07-13T02:24:45;100483.88;;;17.38;52.99
72892;BME280;61032;50.782;6.818;2023-07-13T02:25:45;100479.50;;;17.37;53.07
72892;BME280;61032;50.782;6.818;2023-07-13T02:26:46;100481.47;;;17.36;53.36
72892;BME280;61032;50.782;6.818;2023-07-13T02:27:47;100487.28;;;17.28;53.33
72892;BME280;61032;50.782;6.818;2023-07-13T02:28:47;100483.34;;;17.29;53.63
72892;BME280;61032;50.782;6.818;2023-07-13T02:29:47;100477.09;;;17.35;53.22
72892;BME280;61032;50.782;6.818;2023-07-13T02:30:48;100487.72;;;17.30;53.36
72892;BME280;61032;50.782;6.818;2023-07-13T02:31:48;100487.66;;;17.23;53.37
72892;BME280;61032;50.782;6.818;2023-07-13T02:32:48;100481.72;;;17.24;53.61
72892;BME280;61032;50.782;6.818;2023-07-13T02:33:49;100485.19;;;17.17;53.54
72892;BME280;61032;50.782;6.818;2023-07-13T02:34:49;100483.69;;;17.24;53.66
72892;BME280;61032;50.782;6.818;2023-07-13T02:35:49;100487.16;;;17.17;53.76
72892;BME280;61032;50.782;6.818;2023-07-13T02:36:50;100484.09;;;17.26;53.45
72892;BME280;61032;50.782;6.818;2023-07-13T02:37:50;100480.50;;;17.25;53.18
72892;BME280;61032;50.782;6.818;2023-07-13T02:38:50;100480.06;;;17.20;53.19
72892;BME280;61032;50.782;6.818;2023-07-13T02:39:51;100479.09;;;17.08;53.72
72892;BME280;61032;50.782;6.818;2023-07-13T02:40:51;100482.22;;;17.07;53.84
72892;BME280;61032;50.782;6.818;2023-07-13T02:41:52;100478.22;;;17.04;53.71
72892;BME280;61032;50.782;6.818;2023-07-13T02:42:52;100473.47;;;17.05;53.79
72892;BME280;61032;50.782;6.818;2023-07-13T02:43:52;100477.97;;;17.13;53.54
72892;BME280;61032;50.782;6.818;2023-07-13T02:44:53;100477.53;;;17.11;53.54
72892;BME280;61032;50.782;6.818;2023-07-13T02:45:53;100472.88;;;17.18;53.38
72892;BME280;61032;50.782;6.818;2023-07-13T02:46:53;100478.81;;;17.17;53.52
72892;BME280;61032;50.782;6.818;2023-07-13T02:47:54;100474.53;;;17.23;53.25
72892;BME280;61032;50.782;6.818;2023-07-13T02:48:54;100480.91;;;17.24;53.21
72892;BME280;61032;50.782;6.818;2023-07-13T02:49:55;100475.25;;;17.16;53.34
72892;BME280;61032;50.782;6.818;2023-07-13T02:50:55;100471.28;;;17.17;53.36
72892;BME280;61032;50.782;6.818;2023-07-13T02:51:55;100481.66;;;17.21;53.14
72892;BME280;61032;50.782;6.818;2023-07-13T02:52:56;100472.16;;;17.22;53.56
72892;BME280;61032;50.782;6.818;2023-07-13T02:53:56;100474.19;;;17.28;53.10
72892;BME280;61032;50.782;6.818;2023-07-13T02:54:56;100471.47;;;17.32;53.07
72892;BME280;61032;50.782;6.818;2023-07-13T02:55:57;100471.00;;;17.26;53.10
72892;BME280;61032;50.782;6.818;2023-07-13T02:56:57;100475.34;;;17.24;53.23
72892;BME280;61032;50.782;6.818;2023-07-13T02:57:57;100474.69;;;17.34;53.12
72892;BME280;61032;50.782;6.818;2023-07-13T02:58:58;100479.38;;;17.30;52.93
72892;BME280;61032;50.782;6.818;2023-07-13T02:59:59;100483.81;;;17.34;52.93
72892;BME280;61032;50.782;6.818;2023-07-13T03:00:59;100481.41;;;17.33;52.93
72892;BME280;61032;50.782;6.818;2023-07-13T03:02:05;100482.09;;;17.26;53.12
72892;BME280;61032;50.782;6.818;2023-07-13T03:03:06;100484.88;;;17.23;53.15
72892;BME280;61032;50.782;6.818;2023-07-13T03:04:07;100486.47;;;17.24;53.18
72892;BME280;61032;50.782;6.818;2023-07-13T03:05:07;100486.47;;;17.24;53.21
72892;BME280;61032;50.782;6.818;2023-07-13T03:06:14;100482.34;;;17.14;53.66
72892;BME280;61032;50.782;6.818;2023-07-13T03:07:14;100486.66;;;17.11;53.58
72892;BME280;61032;50.782;6.818;2023-07-13T03:08:15;100483.25;;;17.22;53.44
72892;BME280;61032;50.782;6.818;2023-07-13T03:09:16;100487.28;;;17.24;53.46
72892;BME280;61032;50.782;6.818;2023-07-13T03:10:16;100477.72;;;17.25;52.99
72892;BME280;61032;50.782;6.818;2023-07-13T03:11:19;100489.06;;;17.13;53.47
72892;BME280;61032;50.782;6.818;2023-07-13T03:12:19;100480.38;;;17.14;53.64
72892;BME280;61032;50.782;6.818;2023-07-13T03:13:19;100492.03;;;17.24;53.45
72892;BME280;61032;50.782;6.818;2023-07-13T03:14:21;100489.63;;;17.22;53.39
72892;BME280;61032;50.782;6.818;2023-07-13T03:15:21;100487.84;;;17.10;53.31
72892;BME280;61032;50.782;6.818;2023-07-13T03:16:22;100488.97;;;17.06;53.51
72892;BME280;61032;50.782;6.818;2023-07-13T03:17:22;100490.94;;;17.05;53.46
72892;BME280;61032;50.782;6.818;2023-07-13T03:18:23;100488.00;;;16.95;54.07
72892;BME280;61032;50.782;6.818;2023-07-13T03:19:23;100489.31;;;17.01;53.87
72892;BME280;61032;50.782;6.818;2023-07-13T03:20:24;100489.34;;;17.04;53.96
72892;BME280;61032;50.782;6.818;2023-07-13T03:21:24;100496.47;;;17.02;54.07
72892;BME280;61032;50.782;6.818;2023-07-13T03:22:25;100492.03;;;16.97;54.05
72892;BME280;61032;50.782;6.818;2023-07-13T03:23:25;100498.25;;;16.91;54.30
72892;BME280;61032;50.782;6.818;2023-07-13T03:24:25;100495.59;;;16.98;54.07
72892;BME280;61032;50.782;6.818;2023-07-13T03:25:26;100495.97;;;16.96;54.11
72892;BME280;61032;50.782;6.818;2023-07-13T03:26:26;100493.25;;;17.00;54.16
72892;BME280;61032;50.782;6.818;2023-07-13T03:27:26;100494.16;;;17.07;54.33
72892;BME280;61032;50.782;6.818;2023-07-13T03:28:27;100503.34;;;17.11;53.96
72892;BME280;61032;50.782;6.818;2023-07-13T03:29:27;100495.22;;;16.99;54.27
72892;BME280;61032;50.782;6.818;2023-07-13T03:30:27;100497.63;;;17.01;54.31
72892;BME280;61032;50.782;6.818;2023-07-13T03:31:29;100497.59;;;16.97;54.26
72892;BME280;61032;50.782;6.818;2023-07-13T03:32:30;100499.66;;;17.04;54.03
72892;BME280;61032;50.782;6.818;2023-07-13T03:33:31;100503.06;;;16.94;54.45
72892;BME280;61032;50.782;6.818;2023-07-13T03:34:32;100505.16;;;17.00;54.38
72892;BME280;61032;50.782;6.818;2023-07-13T03:35:35;100498.81;;;17.00;54.39
72892;BME280;61032;50.782;6.818;2023-07-13T03:36:35;100504.75;;;16.98;54.89
72892;BME280;61032;50.782;6.818;2023-07-13T03:37:36;100500.34;;;16.97;54.70
72892;BME280;61032;50.782;6.818;2023-07-13T03:38:42;100504.31;;;16.96;54.59
72892;BME280;61032;50.782;6.818;2023-07-13T03:39:43;100511.72;;;16.89;54.76
72892;BME280;61032;50.782;6.818;2023-07-13T03:40:43;100509.00;;;16.92;54.64
72892;BME280;61032;50.782;6.818;2023-07-13T03:41:44;100509.00;;;16.92;54.70
72892;BME280;61032;50.782;6.818;2023-07-13T03:42:44;100519.25;;;16.88;54.98
72892;BME280;61032;50.782;6.818;2023-07-13T03:43:44;100512.44;;;16.82;54.86
72892;BME280;61032;50.782;6.818;2023-07-13T03:44:45;100523.19;;;16.87;55.15
72892;BME280;61032;50.782;6.818;2023-07-13T03:45:50;100510.06;;;16.84;55.00
72892;BME280;61032;50.782;6.818;2023-07-13T03:46:51;100521.94;;;16.81;54.98
72892;BME280;61032;50.782;6.818;2023-07-13T03:47:51;100515.88;;;16.75;55.20
72892;BME280;61032;50.782;6.818;2023-07-13T03:48:51;100519.63;;;16.64;55.68
72892;BME280;61032;50.782;6.818;2023-07-13T03:49:52;100521.66;;;16.67;55.75
72892;BME280;61032;50.782;6.818;2023-07-13T03:50:53;100519.38;;;16.72;55.52
72892;BME280;61032;50.782;6.818;2023-07-13T03:51:53;100519.88;;;16.78;55.35
72892;BME280;61032;50.782;6.818;2023-07-13T03:52:54;100522.22;;;16.76;55.45
72892;BME280;61032;50.782;6.818;2023-07-13T03:53:56;100523.41;;;16.75;55.71
72892;BME280;61032;50.782;6.818;2023-07-13T03:54:56;100522.53;;;16.71;55.61
72892;BME280;61032;50.782;6.818;2023-07-13T03:55:57;100519.03;;;16.74;55.64
72892;BME280;61032;50.782;6.818;2023-07-13T03:56:57;100521.78;;;16.74;55.51
72892;BME280;61032;50.782;6.818;2023-07-13T03:58:00;100519.03;;;16.74;55.58
72892;BME280;61032;50.782;6.818;2023-07-13T03:59:01;100525.00;;;16.76;55.76
72892;BME280;61032;50.782;6.818;2023-07-13T04:00:02;100528.22;;;16.78;55.70
72892;BME280;61032;50.782;6.818;2023-07-13T04:01:05;100520.69;;;16.78;55.65
72892;BME280;61032;50.782;6.818;2023-07-13T04:02:06;100523.03;;;16.76;55.93
72892;BME280;61032;50.782;6.818;2023-07-13T04:03:28;100523.09;;;16.80;55.66
72892;BME280;61032;50.782;6.818;2023-07-13T04:04:43;100523.78;;;16.73;55.88
72892;BME280;61032;50.782;6.818;2023-07-13T04:05:44;100524.28;;;16.79;55.82
72892;BME280;61032;50.782;6.818;2023-07-13T04:06:44;100519.16;;;16.81;55.93
72892;BME280;61032;50.782;6.818;2023-07-13T04:07:44;100525.53;;;16.85;55.72
72892;BME280;61032;50.782;6.818;2023-07-13T04:08:45;100523.94;;;16.84;56.03
72892;BME280;61032;50.782;6.818;2023-07-13T04:09:46;100525.53;;;16.85;56.03
72892;BME280;61032;50.782;6.818;2023-07-13T04:10:46;100531.53;;;16.87;55.98
72892;BME280;61032;50.782;6.818;2023-07-13T04:11:47;100523.19;;;16.87;55.81
72892;BME280;61032;50.782;6.818;2023-07-13T04:12:48;100529.38;;;16.77;56.17
72892;BME280;61032;50.782;6.818;2023-07-13T04:13:49;100526.19;;;16.75;56.47
72892;BME280;61032;50.782;6.818;2023-07-13T04:14:50;100524.13;;;16.72;56.59
72892;BME280;61032;50.782;6.818;2023-07-13T04:15:52;100526.97;;;16.75;56.59
72892;BME280;61032;50.782;6.818;2023-07-13T04:16:53;100525.88;;;16.80;56.72
72892;BME280;61032;50.782;6.818;2023-07-13T04:17:54;100528.41;;;16.66;57.23
72892;BME280;61032;50.782;6.818;2023-07-13T04:18:55;100522.41;;;16.64;56.97
72892;BME280;61032;50.782;6.818;2023-07-13T04:20:00;100528.47;;;16.69;57.24
72892;BME280;61032;50.782;6.818;2023-07-13T04:21:00;100527.78;;;16.76;57.11
72892;BME280;61032;50.782;6.818;2023-07-13T04:22:00;100523.41;;;16.75;57.06
72892;BME280;61032;50.782;6.818;2023-07-13T04:23:01;100528.81;;;16.68;57.65
72892;BME280;61032;50.782;6.818;2023-07-13T04:24:02;100528.53;;;16.73;57.43
72892;BME280;61032;50.782;6.818;2023-07-13T04:25:03;100533.03;;;16.81;57.15
72892;BME280;61032;50.782;6.818;2023-07-13T04:26:06;100529.50;;;16.84;57.18
72892;BME280;61032;50.782;6.818;2023-07-13T04:27:07;100531.91;;;16.86;57.13
72892;BME280;61032;50.782;6.818;2023-07-13T04:28:07;100537.56;;;16.93;57.12
72892;BME280;61032;50.782;6.818;2023-07-13T04:29:08;100531.72;;;16.98;57.00
72892;BME280;61032;50.782;6.818;2023-07-13T04:30:08;100532.09;;;16.96;57.29
72892;BME280;61032;50.782;6.818;2023-07-13T04:31:09;100540.91;;;17.02;56.99
72892;BME280;61032;50.782;6.818;2023-07-13T04:32:09;100535.34;;;17.02;57.17
72892;BME280;61032;50.782;6.818;2023-07-13T04:33:10;100535.81;;;17.07;56.96
72892;BME280;61032;50.782;6.818;2023-07-13T04:34:10;100538.59;;;17.07;57.33
72892;BME280;61032;50.782;6.818;2023-07-13T04:35:11;100537.84;;;17.10;57.02
72892;BME280;61032;50.782;6.818;2023-07-13T04:36:11;100536.75;;;17.15;57.14
72892;BME280;61032;50.782;6.818;2023-07-13T04:37:12;100538.84;;;17.22;56.70
72892;BME280;61032;50.782;6.818;2023-07-13T04:38:12;100537.84;;;17.10;57.31
72892;BME280;61032;50.782;6.818;2023-07-13T04:39:12;100542.19;;;17.08;57.31
72892;BME280;61032;50.782;6.818;2023-07-13T04:40:14;100539.03;;;17.09;57.26
72892;BME280;61032;50.782;6.818;2023-07-13T04:41:14;100542.66;;;17.13;57.33
72892;BME280;61032;50.782;6.818;2023-07-13T04:42:15;100536.47;;;17.24;57.04
72892;BME280;61032;50.782;6.818;2023-07-13T04:43:15;100539.78;;;17.33;56.79
72892;BME280;61032;50.782;6.818;2023-07-13T04:44:16;100538.66;;;17.37;56.62
72892;BME280;61032;50.782;6.818;2023-07-13T04:45:17;100532.81;;;17.46;56.43
72892;BME280;61032;50.782;6.818;2023-07-13T04:46:17;100537.47;;;17.38;56.42
72892;BME280;61032;50.782;6.818;2023-07-13T04:47:19;100538.28;;;17.39;56.57
72892;BME280;61032;50.782;6.818;2023-07-13T04:48:20;100538.84;;;17.25;56.99
72892;BME280;61032;50.782;6.818;2023-07-13T04:49:20;100538.97;;;17.06;57.70
72892;BME280;61032;50.782;6.818;2023-07-13T04:50:21;100536.03;;;16.95;58.18
72892;BME280;61032;50.782;6.818;2023-07-13T04:51:23;100533.41;;;16.79;58.62
72892;BME280;61032;50.782;6.818;2023-07-13T04:52:23;100534.13;;;16.99;58.47
72892;BME280;61032;50.782;6.818;2023-07-13T04:53:24;100539.88;;;17.13;58.19
72892;BME280;61032;50.782;6.818;2023-07-13T04:54:24;100541.88;;;17.13;57.44
72892;BME280;61032;50.782;6.818;2023-07-13T04:55:25;100540.91;;;17.02;58.35
72892;BME280;61032;50.782;6.818;2023-07-13T04:56:30;100541.88;;;17.13;58.19
72892;BME280;61032;50.782;6.818;2023-07-13T04:57:31;100546.75;;;17.20;58.28
72892;BME280;61032;50.782;6.818;2023-07-13T04:58:31;100544.91;;;17.31;58.22
72892;BME280;61032;50.782;6.818;2023-07-13T04:59:32;100546.31;;;17.44;57.61
72892;BME280;61032;50.782;6.818;2023-07-13T05:00:33;100552.84;;;17.59;57.00
72892;BME280;61032;50.782;6.818;2023-07-13T05:01:34;100543.13;;;17.72;56.56
72892;BME280;61032;50.782;6.818;2023-07-13T05:02:34;100553.38;;;17.64;56.71
72892;BME280;61032;50.782;6.818;2023-07-13T05:03:35;100541.47;;;17.67;56.95
72892;BME280;61032;50.782;6.818;2023-07-13T05:04:35;100542.81;;;17.77;56.63
72892;BME280;61032;50.782;6.818;2023-07-13T05:05:36;100541.72;;;17.85;56.52
72892;BME280;61032;50.782;6.818;2023-07-13T05:06:36;100556.59;;;17.70;56.64
72892;BME280;61032;50.782;6.818;2023-07-13T05:07:36;100547.13;;;17.74;56.80
72892;BME280;61032;50.782;6.818;2023-07-13T05:08:37;100545.25;;;17.82;56.55
72892;BME280;61032;50.782;6.818;2023-07-13T05:09:37;100548.09;;;17.89;56.27
72892;BME280;61032;50.782;6.818;2023-07-13T05:10:37;100549.75;;;17.94;56.20
72892;BME280;61032;50.782;6.818;2023-07-13T05:11:38;100553.06;;;17.73;56.80
72892;BME280;61032;50.782;6.818;2023-07-13T05:12:38;100546.91;;;17.87;56.03
72892;BME280;61032;50.782;6.818;2023-07-13T05:13:38;100553.72;;;17.93;56.34
72892;BME280;61032;50.782;6.818;2023-07-13T05:14:39;100552.16;;;17.95;56.53
72892;BME280;61032;50.782;6.818;2023-07-13T05:15:39;100549.34;;;17.92;56.59
72892;BME280;61032;50.782;6.818;2023-07-13T05:16:39;100556.94;;;17.95;56.38
72892;BME280;61032;50.782;6.818;2023-07-13T05:17:40;100558.97;;;17.68;57.10
72892;BME280;61032;50.782;6.818;2023-07-13T05:18:40;100561.09;;;17.51;57.84
72892;BME280;61032;50.782;6.818;2023-07-13T05:19:40;100559.91;;;17.52;57.87
72892;BME280;61032;50.782;6.818;2023-07-13T05:20:41;100568.16;;;17.72;57.32
72892;BME280;61032;50.782;6.818;2023-07-13T05:21:41;100561.31;;;17.96;56.92